.
WxDataArchive / Data Records for 2009-10-06
2009-10-05 October 2009 2009-10-07

Data Records for Tuesday, 06 October 2009

Time	Temp	Chill	HIndex	Humid	Dewpt	 Wind 	HiWind	WindDir	Rain 	Barom 
-----	----	-----	------	-----	-----	------	------	-------	-----	----- 
00:00	44.1	44.1	44.1	92	41.9	0	0	---	0.00	30.006 
00:05	43.9	43.9	43.9	92	41.7	0	0	---	0.00	30.006 
00:10	43.8	43.8	43.8	92	41.6	0	0	---	0.00	30.006 
00:15	43.8	43.8	43.8	92	41.6	0	0	---	0.00	30.007 
00:20	43.6	43.6	43.6	92	41.4	0	0	---	0.00	30.007 
00:25	43.5	43.5	43.5	92	41.3	0	0	---	0.00	30.007 
00:30	43.3	43.3	43.3	92	41.1	0	0	---	0.00	30.002 
00:35	43.2	43.2	43.2	92	41.0	0	0	---	0.00	30.002 
00:40	43.1	43.1	43.1	93	41.2	0	0	---	0.00	30.002 
00:45	43.1	43.1	43.1	93	41.2	0	0	---	0.00	29.996 
00:50	42.9	42.9	42.9	93	41.0	0	0	---	0.00	29.996 
00:55	42.9	42.9	42.9	93	41.0	0	0	---	0.00	29.996 
01:00	42.8	42.8	42.8	93	40.9	0	0	---	0.00	29.993 
01:05	42.8	42.8	42.8	93	40.9	0	0	---	0.00	29.993 
01:10	42.6	42.6	42.6	93	40.7	0	0	---	0.00	29.993 
01:15	42.6	42.6	42.6	93	40.7	0	0	---	0.00	29.987 
01:20	42.5	42.5	42.5	93	40.6	0	0	---	0.00	29.987 
01:25	42.5	42.5	42.5	93	40.6	0	0	---	0.00	29.987 
01:30	42.3	42.3	42.3	94	40.7	0	0	---	0.00	29.987 
01:35	42.3	42.3	42.3	94	40.7	0	0	---	0.00	29.987 
01:40	42.2	42.2	42.2	94	40.6	0	0	---	0.00	29.987 
01:45	42.1	42.1	42.1	94	40.5	0	0	---	0.00	29.975 
01:50	41.9	41.9	41.9	94	40.3	0	0	---	0.00	29.975 
01:55	41.9	41.9	41.9	94	40.3	0	0	---	0.00	29.975 
02:00	41.9	41.9	41.9	94	40.3	0	0	---	0.00	29.982 
02:05	42.1	42.1	42.1	94	40.5	0	0	---	0.00	29.982 
02:10	41.9	41.9	41.9	94	40.3	0	0	---	0.00	29.982 
02:15	41.9	41.9	41.9	94	40.3	0	0	---	0.00	29.974 
02:20	41.8	41.8	41.8	94	40.2	0	0	---	0.00	29.974 
02:25	41.6	41.6	41.6	94	40.0	0	0	---	0.00	29.974 
02:30	41.6	41.6	41.6	94	40.0	0	0	---	0.00	29.969 
02:35	41.6	41.6	41.6	94	40.0	0	0	---	0.00	29.969 
02:40	41.6	41.6	41.6	95	40.3	0	0	---	0.00	29.969 
02:45	41.6	41.6	41.6	95	40.3	0	0	---	0.00	29.962 
02:50	41.6	41.6	41.6	94	40.0	0	0	---	0.00	29.962 
02:55	41.6	41.6	41.6	95	40.3	0	0	---	0.00	29.962 
03:00	41.8	41.8	41.8	95	40.5	0	0	---	0.00	29.960 
03:05	41.8	41.8	41.8	95	40.5	0	0	---	0.00	29.960 
03:10	41.8	41.8	41.8	95	40.5	0	0	---	0.00	29.960 
03:15	41.8	41.8	41.8	95	40.5	0	0	---	0.00	29.958 
03:20	41.8	41.8	41.8	95	40.5	0	0	---	0.00	29.958 
03:25	41.6	41.6	41.6	95	40.3	0	0	---	0.00	29.958 
03:30	41.6	41.6	41.6	95	40.3	0	0	---	0.00	29.953 
03:35	41.5	41.5	41.5	95	40.2	0	0	---	0.00	29.953 
03:40	41.5	41.5	41.5	95	40.2	0	0	---	0.00	29.953 
03:45	41.5	41.5	41.5	95	40.2	0	0	---	0.00	29.951 
03:50	41.5	41.5	41.5	95	40.2	0	0	---	0.00	29.951 
03:55	41.3	41.3	41.3	95	40.0	0	0	---	0.00	29.951 
04:00	41.3	41.3	41.3	95	40.0	0	0	---	0.00	29.945 
04:05	41.2	41.2	41.2	95	39.9	0	0	---	0.00	29.945 
04:10	41.2	41.2	41.2	95	39.9	0	0	---	0.00	29.945 
04:15	41.1	41.1	41.1	95	39.8	0	0	---	0.00	29.949 
04:20	40.9	40.9	40.9	95	39.6	0	0	---	0.00	29.949 
04:25	40.9	40.9	40.9	95	39.6	0	0	---	0.00	29.949 
04:30	40.9	40.9	40.9	95	39.6	0	0	---	0.00	29.944 
04:35	40.8	40.8	40.8	95	39.5	0	0	---	0.00	29.944 
04:40	41.1	41.1	41.1	95	39.8	0	0	---	0.00	29.944 
04:45	41.2	41.2	41.2	96	40.1	0	0	---	0.00	29.945 
04:50	41.3	41.3	41.3	96	40.2	0	0	---	0.00	29.945 
04:55	41.3	41.3	41.3	95	40.0	0	0	---	0.00	29.945 
05:00	41.3	41.3	41.3	95	40.0	0	0	---	0.00	29.943 
05:05	41.5	41.5	41.5	96	40.4	0	0	---	0.00	29.943 
05:10	41.5	41.5	41.5	96	40.4	0	0	---	0.00	29.943 
05:15	41.6	41.6	41.6	96	40.5	0	0	---	0.00	29.943 
05:20	41.8	41.8	41.8	96	40.7	0	0	---	0.00	29.943 
05:25	41.8	41.8	41.8	96	40.7	0	0	---	0.00	29.943 
05:30	41.6	41.6	41.6	96	40.5	0	0	---	0.00	29.946 
05:35	41.6	41.6	41.6	95	40.3	0	0	---	0.00	29.946 
05:40	41.5	41.5	41.5	96	40.4	0	0	---	0.00	29.946 
05:45	41.5	41.5	41.5	96	40.4	0	0	---	0.00	29.939 
05:50	41.5	41.5	41.5	96	40.4	0	0	---	0.00	29.939 
05:55	41.5	41.5	41.5	96	40.4	0	0	---	0.00	29.939 
06:00	41.6	41.6	41.6	96	40.5	0	1	315	0.00	29.936 
06:05	41.8	41.8	41.8	96	40.7	0	1	315	0.00	29.936 
06:10	41.8	41.8	41.8	96	40.7	0	1	315	0.00	29.936 
06:15	41.8	41.8	41.8	96	40.7	0	0	---	0.00	29.932 
06:20	41.8	41.8	41.8	95	40.5	0	1	315	0.00	29.932 
06:25	41.8	41.8	41.8	95	40.5	0	1	315	0.00	29.932 
06:30	41.8	41.8	41.8	95	40.5	0	1	315	0.00	29.924 
06:35	41.8	41.8	41.8	95	40.5	0	2	315	0.00	29.924 
06:40	41.8	41.8	41.8	95	40.5	0	2	315	0.00	29.924 
06:45	41.8	41.8	41.8	95	40.5	0	2	315	0.00	29.913 
06:50	41.8	41.8	41.8	95	40.5	1	2	90	0.00	29.913 
06:55	41.8	41.8	41.8	95	40.5	0	2	90	0.00	29.913 
07:00	41.6	41.6	41.6	94	40.0	0	1	90	0.00	29.924 
07:05	41.6	41.6	41.6	94	40.0	0	0	---	0.00	29.924 
07:10	41.5	41.5	41.5	94	39.9	0	1	90	0.00	29.924 
07:15	41.5	41.5	41.5	94	39.9	0	1	90	0.00	29.921 
07:20	41.5	41.5	41.5	94	39.9	0	2	90	0.00	29.921 
07:25	41.6	41.6	41.6	94	40.0	0	2	90	0.00	29.921 
07:30	41.6	41.6	41.6	94	40.0	0	2	90	0.00	29.926 
07:35	41.6	41.6	41.6	94	40.0	0	0	---	0.00	29.926 
07:40	41.6	41.6	41.6	94	40.0	0	0	---	0.00	29.926 
07:45	41.6	41.6	41.6	94	40.0	0	0	---	0.00	29.933 
07:50	41.6	41.6	41.6	94	40.0	0	0	---	0.00	29.933 
07:55	41.8	41.8	41.8	94	40.2	0	0	---	0.00	29.933 
08:00	41.8	41.8	41.8	94	40.2	0	0	---	0.00	29.921 
08:05	41.9	41.9	41.9	94	40.3	0	0	---	0.00	29.921 
08:10	42.1	42.1	42.1	94	40.5	0	0	---	0.00	29.921 
08:15	42.1	42.1	42.1	94	40.5	0	3	90	0.00	29.919 
08:20	42.2	42.2	42.2	94	40.6	0	2	90	0.00	29.919 
08:25	42.3	42.3	42.3	94	40.7	1	3	90	0.00	29.919 
08:30	42.3	42.3	42.3	94	40.7	1	2	90	0.00	29.897 
08:35	42.3	42.3	42.3	94	40.7	0	2	90	0.00	29.897 
08:40	42.5	42.5	42.5	94	40.9	0	1	90	0.00	29.897 
08:45	42.6	42.6	42.6	94	41.0	0	2	90	0.00	29.902 
08:50	42.8	42.8	42.8	94	41.2	0	2	90	0.00	29.902 
08:55	43.1	43.1	43.1	94	41.5	1	4	90	0.00	29.902 
09:00	43.3	43.3	43.3	94	41.7	0	2	90	0.00	29.902 
09:05	43.5	43.5	43.5	93	41.6	0	2	90	0.00	29.902 
09:10	43.5	43.5	43.5	93	41.6	0	1	90	0.00	29.902 
09:15	43.6	43.6	43.6	93	41.7	0	2	90	0.00	29.889 
09:20	43.8	43.8	43.8	93	41.9	0	2	90	0.00	29.889 
09:25	43.9	43.9	43.9	93	42.0	0	2	90	0.00	29.889 
09:30	44.1	44.1	44.1	92	41.9	0	2	90	0.00	29.885 
09:35	44.2	44.2	44.2	92	42.0	0	1	90	0.00	29.885 
09:40	44.3	44.3	44.3	92	42.1	0	2	90	0.00	29.885 
09:45	44.5	44.5	44.5	92	42.3	0	2	90	0.00	29.871 
09:50	44.9	44.9	44.9	91	42.4	0	3	90	0.00	29.871 
09:55	45.2	45.2	45.2	90	42.4	0	2	112	0.00	29.871 
10:00	45.7	45.7	45.7	89	42.6	0	2	112	0.00	29.867 
10:05	46.0	46.0	46.0	89	42.9	0	2	112	0.00	29.867 
10:10	46.2	46.2	46.2	88	42.8	0	1	112	0.00	29.867 
10:15	46.5	46.5	46.5	88	43.1	0	2	112	0.00	29.871 
10:20	47.0	47.0	47.0	87	43.3	0	2	112	0.00	29.871 
10:25	47.3	47.3	47.3	86	43.3	0	2	112	0.00	29.871 
10:30	47.4	47.4	47.4	85	43.1	0	2	112	0.00	29.866 
10:35	47.7	47.7	47.7	85	43.4	0	2	112	0.00	29.866 
10:40	48.0	48.0	48.0	85	43.7	0	1	112	0.00	29.866 
10:45	48.3	48.3	48.3	85	44.0	0	2	112	0.00	29.864 
10:50	48.6	48.6	48.6	84	44.0	1	3	112	0.00	29.864 
10:55	48.9	48.9	48.9	85	44.6	1	2	68	0.00	29.864 
11:00	49.4	49.4	49.4	84	44.8	1	3	112	0.00	29.844 
11:05	50.1	50.1	50.1	84	45.5	1	4	90	0.00	29.844 
11:10	50.7	50.7	50.7	83	45.7	1	3	90	0.00	29.844 
11:15	51.1	51.1	51.1	84	46.4	0	3	90	0.00	29.837 
11:20	51.6	51.6	51.6	84	46.9	1	4	90	0.00	29.837 
11:25	52.2	52.2	52.2	85	47.8	0	2	90	0.00	29.837 
11:30	52.8	52.8	52.8	85	48.4	1	4	90	0.00	29.817 
11:35	53.3	53.3	53.3	84	48.6	1	3	135	0.00	29.817 
11:40	53.8	53.8	53.8	83	48.8	1	4	90	0.00	29.817 
11:45	54.4	54.4	54.4	81	48.7	1	5	112	0.00	29.793 
11:50	55.0	55.0	55.0	80	48.9	1	3	22	0.00	29.793 
11:55	55.7	55.7	55.7	78	48.9	1	4	112	0.00	29.793 
12:00	56.3	56.3	56.3	73	47.8	2	6	112	0.00	29.769 
12:05	56.9	56.9	56.9	72	48.0	1	5	90	0.00	29.769 
12:10	57.5	57.5	57.5	70	47.8	2	5	135	0.00	29.769 
12:15	58.1	58.1	58.1	69	48.0	2	6	112	0.00	29.753 
12:20	58.6	58.6	58.6	68	48.1	2	5	90	0.00	29.753 
12:25	59.5	59.5	59.5	68	48.9	2	6	90	0.00	29.753 
12:30	60.2	60.2	60.2	64	48.0	2	4	90	0.00	29.748 
12:35	60.7	60.7	60.7	64	48.4	2	9	90	0.00	29.748 
12:40	61.2	61.2	61.2	65	49.3	1	9	112	0.00	29.748 
12:45	61.6	61.6	61.6	62	48.4	2	7	90	0.00	29.734 
12:50	61.8	61.8	61.8	61	48.2	3	6	90	0.00	29.734 
12:55	62.0	62.0	62.0	63	49.3	2	6	90	0.00	29.734 
13:00	62.1	62.1	62.1	62	48.9	3	7	90	0.00	29.717 
13:05	62.0	62.0	62.0	62	48.8	3	12	112	0.00	29.717 
13:10	61.8	61.8	61.8	63	49.1	2	6	90	0.00	29.717 
13:15	61.8	61.8	61.8	62	48.6	2	7	90	0.00	29.713 
13:20	61.6	61.6	61.6	63	48.9	2	5	112	0.00	29.713 
13:25	61.8	61.8	61.8	64	49.5	2	5	68	0.00	29.713 
13:30	61.8	61.8	61.8	64	49.5	2	6	68	0.00	29.701 
13:35	61.8	61.8	61.8	65	49.9	1	5	0	0.00	29.701 
13:40	62.0	62.0	62.0	66	50.5	1	5	270	0.00	29.701 
13:45	62.0	62.0	62.0	65	50.1	1	5	90	0.00	29.685 
13:50	62.0	62.0	62.0	66	50.5	1	5	90	0.00	29.685 
13:55	62.1	62.1	62.1	67	51.0	1	4	90	0.00	29.685 
14:00	62.4	62.4	62.4	69	52.1	2	6	90	0.00	29.659 
14:05	62.6	62.6	62.6	71	53.1	1	4	68	0.00	29.659 
14:10	62.9	62.9	62.9	69	52.6	2	5	90	0.00	29.659 
14:15	63.4	63.4	63.4	69	53.0	2	13	90	0.00	29.641 
14:20	63.7	63.7	63.7	69	53.3	2	7	90	0.00	29.641 
14:25	63.5	63.5	63.5	71	53.9	3	7	68	0.00	29.641 
14:30	63.4	63.4	63.4	70	53.4	3	11	90	0.00	29.634 
14:35	63.4	63.4	63.4	71	53.8	2	7	90	0.00	29.634 
14:40	63.4	63.4	63.4	72	54.2	1	4	68	0.00	29.634 
14:45	63.2	63.2	63.2	72	54.0	1	4	68	0.00	29.613 
14:50	63.1	63.1	63.1	73	54.3	1	4	45	0.00	29.613 
14:55	62.7	62.7	62.7	73	53.9	0	3	112	0.00	29.613 
15:00	62.6	62.6	62.6	75	54.6	1	5	0	0.00	29.607 
15:05	62.4	62.4	62.4	76	54.7	1	3	68	0.00	29.607 
15:10	62.4	62.4	62.4	77	55.1	1	11	90	0.00	29.607 
15:15	62.1	62.1	62.1	81	56.2	2	6	45	0.00	29.607 
15:20	61.6	61.6	61.6	84	56.7	1	5	68	0.00	29.607 
15:25	61.2	61.2	61.2	86	57.0	1	5	90	0.00	29.607 
15:30	60.9	60.9	60.9	88	57.3	1	6	270	0.01	29.600 
15:35	60.5	60.5	60.5	89	57.2	0	2	338	0.00	29.600 
15:40	60.2	60.2	60.2	90	57.3	1	4	90	0.01	29.600 
15:45	60.1	60.1	60.1	91	57.5	1	4	90	0.01	29.586 
15:50	59.9	59.9	59.9	92	57.6	1	4	90	0.00	29.586 
15:55	59.9	59.9	59.9	92	57.6	0	3	112	0.01	29.586 
16:00	59.9	59.9	59.9	93	57.9	1	4	112	0.00	29.576 
16:05	59.9	59.9	59.9	93	57.9	1	4	112	0.01	29.576 
16:10	59.9	59.9	59.9	94	58.2	1	6	45	0.00	29.576 
16:15	59.8	59.8	59.8	94	58.1	1	9	270	0.00	29.569 
16:20	59.8	59.8	59.8	94	58.1	1	4	292	0.00	29.569 
16:25	59.8	59.8	59.8	94	58.1	1	4	270	0.00	29.569 
16:30	59.9	59.9	59.9	94	58.2	1	5	270	0.01	29.550 
16:35	59.9	59.9	59.9	95	58.5	1	4	270	0.00	29.550 
16:40	59.9	59.9	59.9	95	58.5	1	7	292	0.00	29.550 
16:45	59.9	59.9	59.9	95	58.5	1	4	270	0.00	29.546 
16:50	59.9	59.9	59.9	95	58.5	1	4	248	0.00	29.546 
16:55	59.9	59.9	59.9	95	58.5	2	7	292	0.01	29.546 
17:00	59.9	59.9	59.9	95	58.5	2	5	248	0.01	29.537 
17:05	60.1	60.1	60.1	95	58.7	2	6	270	0.01	29.537 
17:10	60.1	60.1	60.1	95	58.7	1	4	248	0.00	29.537 
17:15	60.1	60.1	60.1	95	58.7	2	9	270	0.00	29.528 
17:20	60.1	60.1	60.1	95	58.7	2	6	248	0.00	29.528 
17:25	60.1	60.1	60.1	95	58.7	1	5	315	0.00	29.528 
17:30	60.1	60.1	60.1	95	58.7	2	11	270	0.00	29.535 
17:35	60.1	60.1	60.1	95	58.7	2	7	248	0.00	29.535 
17:40	60.1	60.1	60.1	95	58.7	3	9	270	0.00	29.535 
17:45	60.1	60.1	60.1	95	58.7	2	6	248	0.00	29.533 
17:50	60.1	60.1	60.1	95	58.7	3	6	292	0.00	29.533 
17:55	60.1	60.1	60.1	95	58.7	2	5	292	0.00	29.533 
18:00	60.1	60.1	60.1	95	58.7	2	6	292	0.00	29.530 
18:05	60.1	60.1	60.1	95	58.7	2	6	248	0.00	29.530 
18:10	60.1	60.1	60.1	95	58.7	1	4	270	0.00	29.530 
18:15	60.1	60.1	60.1	95	58.7	1	5	248	0.01	29.531 
18:20	60.1	60.1	60.1	95	58.7	1	3	248	0.00	29.531 
18:25	60.2	60.2	60.2	95	58.8	2	6	248	0.01	29.531 
18:30	60.2	60.2	60.2	95	58.8	2	5	270	0.00	29.525 
18:35	60.2	60.2	60.2	96	59.1	2	6	225	0.00	29.525 
18:40	60.2	60.2	60.2	96	59.1	2	6	248	0.00	29.525 
18:45	60.2	60.2	60.2	96	59.1	2	6	225	0.00	29.514 
18:50	60.2	60.2	60.2	96	59.1	2	11	248	0.00	29.514 
18:55	60.2	60.2	60.2	96	59.1	2	7	248	0.00	29.514 
19:00	60.4	60.4	60.4	96	59.3	2	6	270	0.00	29.513 
19:05	60.4	60.4	60.4	96	59.3	3	11	270	0.00	29.513 
19:10	60.4	60.4	60.4	96	59.3	3	7	270	0.00	29.513 
19:15	60.4	60.4	60.4	96	59.3	3	7	270	0.00	29.512 
19:20	60.4	60.4	60.4	95	59.0	4	7	248	0.00	29.512 
19:25	60.4	60.4	60.4	95	59.0	2	6	270	0.01	29.512 
19:30	60.4	60.4	60.4	95	59.0	3	10	248	0.00	29.515 
19:35	60.4	60.4	60.4	95	59.0	3	9	248	0.00	29.515 
19:40	60.4	60.4	60.4	95	59.0	3	5	270	0.00	29.515 
19:45	60.4	60.4	60.4	95	59.0	2	5	270	0.00	29.520 
19:50	60.4	60.4	60.4	95	59.0	2	8	248	0.00	29.520 
19:55	60.4	60.4	60.4	95	59.0	2	7	270	0.00	29.520 
20:00	60.4	60.4	60.4	94	58.7	3	9	248	0.00	29.521 
20:05	60.4	60.4	60.4	94	58.7	2	5	270	0.00	29.521 
20:10	60.4	60.4	60.4	94	58.7	2	5	270	0.00	29.521 
20:15	60.4	60.4	60.4	94	58.7	2	5	270	0.00	29.529 
20:20	60.4	60.4	60.4	93	58.4	1	4	248	0.00	29.529 
20:25	60.4	60.4	60.4	93	58.4	1	3	248	0.00	29.529 
20:30	60.4	60.4	60.4	93	58.4	2	4	248	0.00	29.530 
20:35	60.4	60.4	60.4	92	58.1	2	4	248	0.00	29.530 
20:40	60.4	60.4	60.4	92	58.1	2	4	270	0.00	29.530 
20:45	60.4	60.4	60.4	92	58.1	1	4	270	0.00	29.523 
20:50	60.2	60.2	60.2	91	57.6	2	5	248	0.00	29.523 
20:55	60.2	60.2	60.2	91	57.6	2	6	248	0.00	29.523 
21:00	60.1	60.1	60.1	91	57.5	1	5	248	0.00	29.518 
21:05	60.1	60.1	60.1	91	57.5	1	5	270	0.00	29.518 
21:10	60.1	60.1	60.1	91	57.5	2	5	270	0.00	29.518 
21:15	60.2	60.2	60.2	90	57.3	2	4	270	0.00	29.512 
21:20	60.2	60.2	60.2	90	57.3	1	4	270	0.00	29.512 
21:25	60.2	60.2	60.2	90	57.3	3	7	270	0.00	29.512 
21:30	60.4	60.4	60.4	89	57.1	3	6	270	0.00	29.522 
21:35	60.4	60.4	60.4	88	56.8	3	6	270	0.00	29.522 
21:40	60.2	60.2	60.2	87	56.3	3	6	270	0.00	29.522 
21:45	60.1	60.1	60.1	84	55.2	4	6	270	0.00	29.528 
21:50	60.1	60.1	60.1	81	54.2	4	9	270	0.00	29.528 
21:55	60.1	60.1	60.1	80	53.9	3	6	270	0.00	29.528 
22:00	59.9	59.9	59.9	80	53.7	3	6	270	0.00	29.537 
22:05	59.6	59.6	59.6	79	53.1	2	6	270	0.00	29.537 
22:10	59.5	59.5	59.5	76	51.9	4	7	270	0.00	29.537 
22:15	59.3	59.3	59.3	74	51.0	3	6	248	0.00	29.541 
22:20	59.2	59.2	59.2	73	50.5	3	6	248	0.00	29.541 
22:25	59.2	59.2	59.2	73	50.5	3	7	270	0.00	29.541 
22:30	59.2	59.2	59.2	72	50.2	3	10	270	0.00	29.542 
22:35	59.0	59.0	59.0	73	50.4	2	6	248	0.00	29.542 
22:40	58.9	58.9	58.9	74	50.6	2	5	270	0.00	29.542 
22:45	58.7	58.7	58.7	74	50.4	2	6	248	0.00	29.548 
22:50	58.9	58.9	58.9	73	50.3	3	6	270	0.00	29.548 
22:55	58.9	58.9	58.9	71	49.5	3	8	248	0.00	29.548 
23:00	59.0	59.0	59.0	69	48.8	4	8	270	0.00	29.553 
23:05	59.0	59.0	59.0	69	48.8	4	10	270	0.00	29.553 
23:10	58.9	58.9	58.9	68	48.4	4	7	270	0.00	29.553 
23:15	58.9	58.9	58.9	68	48.4	4	7	270	0.00	29.554 
23:20	58.7	58.7	58.7	65	47.0	4	9	270	0.00	29.554 
23:25	58.6	58.6	58.6	65	46.9	4	12	270	0.00	29.554 
23:30	58.4	58.4	58.4	65	46.7	5	10	270	0.00	29.564 
23:35	58.1	58.1	58.1	65	46.4	4	10	270	0.00	29.564 
23:40	58.0	58.0	58.0	63	45.5	5	13	270	0.00	29.564 
23:45	57.5	57.5	57.5	61	44.2	5	9	270	0.00	29.568 
23:50	57.2	57.2	57.2	60	43.4	6	15	270	0.00	29.568 
23:55	57.0	57.0	57.0	59	42.8	6	11	270	0.00	29.568 

CoCoRaHS
IN-AL-39
A2 Web Hosting
Creative Commons License
GoDaddy
search engine by freefind advanced

loaded 2018-11-15 18:49:28 • last modified 2010-11-18 10:43:29
Privacy PolicyDisclaimer
• wx.awcolley.com is powered by PmWiki v.2002016 •
• all content (unless otherwise noted) © 2018 A W Colley